Time,TemperatureF,DewpointF,PressureIn,WindDirection,WindDirectionDegrees,WindSpeedMPH,WindSpeedGustMPH,Humidity,HourlyPrecipIn,Conditions,Clouds,dailyrainin,SoftwareType,DateUTC
2016-07-29 10:29:00,74.3,66.0,29.92,ESE,107,5.0,8.0,74,0.00,,,0.00,weatherlink.com 1.10,2016-07-29 14:29:00,
2016-07-29 10:44:00,74.4,65.0,29.92,East,80,4.0,8.0,73,0.00,,,0.00,weatherlink.com 1.10,2016-07-29 14:44:00,
2016-07-29 10:59:00,75.0,65.0,29.92,ESE,104,5.0,9.0,72,0.00,,,0.00,weatherlink.com 1.10,2016-07-29 14:59:00,
2016-07-29 11:14:00,75.1,66.0,29.92,East,100,1.0,8.0,72,0.00,,,0.00,weatherlink.com 1.10,2016-07-29 15:14:00,
2016-07-29 11:29:00,75.9,65.0,29.92,East,96,4.0,9.0,70,0.00,,,0.00,weatherlink.com 1.10,2016-07-29 15:29:00,
2016-07-29 11:44:00,75.8,67.0,29.92,ENE,68,6.0,8.0,73,0.00,,,0.00,weatherlink.com 1.10,2016-07-29 15:44:00,
2016-07-29 11:59:00,76.4,67.0,29.92,East,81,4.0,6.0,72,0.00,,,0.00,weatherlink.com 1.10,2016-07-29 15:59:00,
2016-07-29 12:14:00,76.3,66.0,29.92,South,173,1.0,7.0,70,0.00,,,0.00,weatherlink.com 1.10,2016-07-29 16:14:00,
2016-07-29 12:29:00,76.5,66.0,29.92,ENE,66,5.0,10.0,71,0.00,,,0.00,weatherlink.com 1.10,2016-07-29 16:29:00,
2016-07-29 12:44:00,75.0,66.0,29.92,ENE,68,5.0,9.0,73,0.00,,,0.00,weatherlink.com 1.10,2016-07-29 16:44:00,
2016-07-29 12:59:00,74.9,67.0,29.92,ENE,77,1.0,4.0,75,0.00,,,0.00,weatherlink.com 1.10,2016-07-29 16:59:00,
2016-07-29 13:14:00,74.1,66.0,29.93,NNW,336,6.0,6.0,77,0.01,,,0.01,weatherlink.com 1.10,2016-07-29 17:14:00,
2016-07-29 13:29:00,67.9,62.0,29.93,NE,47,6.0,14.0,82,0.55,,,0.55,weatherlink.com 1.10,2016-07-29 17:29:00,
2016-07-29 13:44:00,68.4,65.0,29.92,East,79,10.0,10.0,89,0.66,,,0.66,weatherlink.com 1.10,2016-07-29 17:44:00,
2016-07-29 13:59:00,69.2,66.0,29.93,ENE,70,4.0,14.0,88,0.67,,,0.67,weatherlink.com 1.10,2016-07-29 17:59:00,
2016-07-29 14:14:00,69.2,66.0,29.92,ENE,65,12.0,14.0,88,0.65,,,0.67,weatherlink.com 1.10,2016-07-29 18:14:00,
2016-07-29 14:29:00,71.8,67.0,29.92,NE,46,6.0,13.0,85,0.08,,,0.67,weatherlink.com 1.10,2016-07-29 18:29:00,
2016-07-29 14:44:00,73.2,67.0,29.93,ENE,78,4.0,10.0,81,0.01,,,0.67,weatherlink.com 1.10,2016-07-29 18:44:00,
2016-07-29 14:59:00,74.1,67.0,29.93,East,84,10.0,11.0,78,0.00,,,0.67,weatherlink.com 1.10,2016-07-29 18:59:00,
2016-07-29 15:44:00,75.8,68.0,29.92,ENE,76,4.0,11.0,77,0.00,,,0.67,weatherlink.com 1.10,2016-07-29 19:44:00,
2016-07-29 15:59:00,76.0,66.0,29.92,ENE,72,8.0,10.0,72,0.00,,,0.67,weatherlink.com 1.10,2016-07-29 19:59:00,
2016-07-29 16:14:00,76.3,67.0,29.92,SE,124,5.0,12.0,72,0.00,,,0.67,weatherlink.com 1.10,2016-07-29 20:14:00,
2016-07-29 16:29:00,76.5,67.0,29.92,ENE,65,5.0,12.0,73,0.00,,,0.67,weatherlink.com 1.10,2016-07-29 20:29:00,
2016-07-29 16:44:00,76.4,66.0,29.92,East,98,5.0,12.0,70,0.00,,,0.67,weatherlink.com 1.10,2016-07-29 20:44:00,
2016-07-29 16:59:00,76.9,67.0,29.91,ENE,65,5.0,11.0,71,0.00,,,0.67,weatherlink.com 1.10,2016-07-29 20:59:00,
2016-07-29 17:14:00,76.4,66.0,29.91,East,92,11.0,12.0,71,0.00,,,0.67,weatherlink.com 1.10,2016-07-29 21:14:00,
2016-07-29 17:29:00,75.7,65.0,29.92,East,90,5.0,8.0,70,0.00,,,0.67,weatherlink.com 1.10,2016-07-29 21:29:00,
2016-07-29 17:44:00,76.1,66.0,29.92,NE,41,5.0,7.0,71,0.00,,,0.67,weatherlink.com 1.10,2016-07-29 21:44:00,
2016-07-29 17:59:00,76.4,66.0,29.92,ENE,75,4.0,8.0,69,0.00,,,0.67,weatherlink.com 1.10,2016-07-29 21:59:00,
2016-07-29 18:14:00,76.2,65.0,29.92,ENE,78,3.0,9.0,69,0.00,,,0.67,weatherlink.com 1.10,2016-07-29 22:14:00,